Time;durP1;ratioP1;P1;durP2;ratioP2;P2;SDS_P1;SDS_P2;PMS_P1;PMS_P2;Temp;Humidity;BMP_temperature;BMP_pressure;BME280_temperature;BME280_humidity;BME280_pressure;Samples;Min_cycle;Max_cycle;Signal;HPM_P1;HPM_P2
2022/06/26 00:02:13;;;;;;;29.30;16.05;;;;;;;18.30;90.58;100773.47;5072633;28;20068;-64
2022/06/26 00:04:40;;;;;;;22.48;13.00;;;;;;;18.39;91.23;100783.00;5071854;28;20032;-64
2022/06/26 00:07:07;;;;;;;24.17;12.88;;;;;;;18.44;91.16;100754.69;5072495;28;20379;-64
2022/06/26 00:09:34;;;;;;;22.52;13.23;;;;;;;18.41;92.42;100756.75;5074777;28;20040;-64
2022/06/26 00:12:00;;;;;;;20.88;13.20;;;;;;;18.21;91.34;100737.94;5075013;28;20577;-64
2022/06/26 00:14:27;;;;;;;29.23;14.23;;;;;;;18.28;93.10;100737.94;5076040;28;20406;-64
2022/06/26 00:16:54;;;;;;;22.92;13.93;;;;;;;18.37;92.55;100728.66;5076089;28;20397;-64
2022/06/26 00:19:20;;;;;;;22.08;13.73;;;;;;;18.38;93.92;100729.47;5075511;28;20068;-64
2022/06/26 00:21:48;;;;;;;22.85;13.48;;;;;;;18.41;92.88;100723.72;5075974;28;20045;-63
2022/06/26 00:24:14;;;;;;;20.00;11.90;;;;;;;18.46;92.19;100744.56;5075852;28;20110;-63
2022/06/26 00:26:41;;;;;;;18.95;11.18;;;;;;;18.48;92.16;100753.22;5075806;28;20037;-62
2022/06/26 00:29:08;;;;;;;19.52;11.63;;;;;;;18.56;91.25;100755.72;5075588;28;20040;-63
2022/06/26 00:31:36;;;;;;;18.85;11.95;;;;;;;18.55;91.64;100744.13;5075689;28;20127;-63
2022/06/26 00:34:03;;;;;;;17.95;11.60;;;;;;;18.46;92.69;100739.19;5075201;28;20121;-63
2022/06/26 00:36:30;;;;;;;19.40;11.13;;;;;;;18.47;92.38;100730.13;5071461;28;20054;-63
2022/06/26 00:38:56;;;;;;;23.08;11.80;;;;;;;18.45;92.66;100741.06;5075679;28;20102;-63
2022/06/26 00:41:23;;;;;;;17.30;11.30;;;;;;;18.50;93.08;100740.41;5075418;28;20047;-63
2022/06/26 00:43:50;;;;;;;19.80;11.63;;;;;;;18.48;92.83;100748.72;5075575;28;20090;-63
2022/06/26 00:46:17;;;;;;;15.13;10.75;;;;;;;18.38;93.27;100756.34;5075559;28;20497;-63
2022/06/26 00:48:43;;;;;;;17.77;10.85;;;;;;;18.39;93.46;100758.81;5075319;28;20051;-63
2022/06/26 00:51:11;;;;;;;16.08;10.50;;;;;;;18.40;93.76;100763.13;5075029;28;20505;-63
2022/06/26 00:53:38;;;;;;;20.67;11.52;;;;;;;18.52;92.98;100766.06;5075203;28;20041;-63
2022/06/26 00:56:05;;;;;;;15.95;10.40;;;;;;;18.15;93.01;100779.00;5075255;28;20405;-63
2022/06/26 00:58:32;;;;;;;17.98;11.00;;;;;;;18.16;93.21;100782.53;5075369;28;20163;-62
2022/06/26 01:00:59;;;;;;;16.77;10.82;;;;;;;18.07;93.44;100791.81;5074261;28;20060;-62
2022/06/26 01:03:25;;;;;;;19.48;11.20;;;;;;;18.00;94.20;100797.16;5075111;28;20102;-62
2022/06/26 01:05:53;;;;;;;19.25;11.05;;;;;;;17.96;95.20;100796.72;5075250;28;20045;-62
2022/06/26 01:08:20;;;;;;;27.30;13.30;;;;;;;17.87;95.46;100795.25;5075075;28;20060;-62
2022/06/26 01:10:49;;;;;;;24.23;14.55;;;;;;;17.87;95.28;100794.41;5074799;28;20448;-64
2022/06/26 01:13:16;;;;;;;23.30;14.02;;;;;;;17.76;95.62;100783.19;5074894;28;20093;-62
2022/06/26 01:15:43;;;;;;;22.35;13.85;;;;;;;17.79;96.34;100780.13;5074728;28;20453;-63
2022/06/26 01:18:11;;;;;;;28.00;15.05;;;;;;;17.82;96.44;100782.38;5074973;28;20150;-63
2022/06/26 01:20:39;;;;;;;22.17;14.65;;;;;;;17.93;95.92;100794.44;5074956;28;20056;-62
2022/06/26 01:23:07;;;;;;;22.80;14.55;;;;;;;18.01;95.42;100791.56;5074469;28;20494;-63
2022/06/26 01:25:45;;;;;;;22.85;14.32;;;;;;;17.92;96.04;100792.78;5074743;28;20048;-63
2022/06/26 01:28:13;;;;;;;25.63;14.90;;;;;;;17.96;96.37;100804.75;5074612;28;20052;-63
2022/06/26 01:30:41;;;;;;;23.63;14.95;;;;;;;17.96;97.67;100804.75;5074526;28;20052;-63
2022/06/26 01:33:10;;;;;;;24.35;15.57;;;;;;;17.92;97.11;100805.34;5073701;28;20079;-62
2022/06/26 01:35:37;;;;;;;22.98;14.38;;;;;;;17.87;96.99;100813.22;5070672;28;20046;-62
2022/06/26 01:38:22;;;;;;;22.70;14.38;;;;;;;17.86;97.06;100819.59;5054774;28;20439;-63
2022/06/26 01:40:53;;;;;;;21.45;14.35;;;;;;;17.89;96.46;100830.75;5054369;28;20124;-62
2022/06/26 01:43:22;;;;;;;25.98;15.05;;;;;;;17.80;96.49;100834.59;5054672;28;20049;-62
2022/06/26 01:45:51;;;;;;;21.88;14.00;;;;;;;17.75;96.72;100843.22;5054191;28;20044;-62
2022/06/26 01:48:21;;;;;;;27.92;14.30;;;;;;;17.71;96.61;100850.03;5054496;28;20049;-62
2022/06/26 01:50:48;;;;;;;23.98;13.07;;;;;;;17.52;96.44;100848.91;5054479;28;20123;-62
2022/06/26 01:53:15;;;;;;;21.80;13.30;;;;;;;17.47;97.15;100845.97;5054392;28;20103;-63
2022/06/26 01:55:42;;;;;;;25.10;14.82;;;;;;;17.44;98.42;100857.94;5054201;28;20041;-63
2022/06/26 01:58:13;;;;;;;23.00;15.48;;;;;;;17.48;96.83;100863.72;5054514;28;20049;-62
2022/06/26 02:00:43;;;;;;;25.30;14.85;;;;;;;17.42;98.06;100864.50;5053925;28;20111;-63
2022/06/26 02:03:12;;;;;;;29.42;16.00;;;;;;;17.36;97.07;100857.25;5054263;28;20095;-63
2022/06/26 02:05:39;;;;;;;26.35;15.77;;;;;;;17.34;97.44;100870.84;5060197;28;20044;-63
2022/06/26 02:08:06;;;;;;;26.10;15.90;;;;;;;17.25;98.05;100862.13;5072466;28;20083;-62
2022/06/26 02:13:40;;;;;;;27.38;16.30;;;;;;;17.40;98.86;100848.59;5053364;28;20088;-63
2022/06/26 02:16:14;;;;;;;23.98;16.35;;;;;;;17.45;98.76;100840.00;5053903;28;20041;-62
2022/06/26 02:18:44;;;;;;;28.15;16.80;;;;;;;17.49;97.90;100838.56;5053814;28;20086;-62
2022/06/26 02:21:15;;;;;;;28.45;16.27;;;;;;;17.51;97.45;100838.38;5053382;28;20138;-62
2022/06/26 02:23:43;;;;;;;23.42;14.23;;;;;;;17.56;95.96;100842.13;5061785;28;20159;-63
2022/06/26 02:26:11;;;;;;;24.63;14.68;;;;;;;17.59;96.20;100854.28;5073318;28;20036;-62
2022/06/26 02:28:38;;;;;;;24.27;13.55;;;;;;;17.53;95.16;100855.09;5072171;28;20056;-62
2022/06/26 02:31:05;;;;;;;21.20;13.20;;;;;;;17.54;94.84;100854.06;5072953;28;20049;-62
2022/06/26 02:33:34;;;;;;;23.27;13.00;;;;;;;17.44;94.90;100860.63;5073062;28;20052;-62
2022/06/26 02:36:03;;;;;;;21.02;12.05;;;;;;;17.39;94.53;100860.38;5073517;28;20059;-63
2022/06/26 02:38:31;;;;;;;20.73;13.50;;;;;;;17.20;96.13;100861.06;5073422;28;20053;-62
2022/06/26 02:40:59;;;;;;;20.60;12.68;;;;;;;17.25;96.47;100859.44;5073176;28;20052;-63
2022/06/26 02:43:26;;;;;;;23.40;13.27;;;;;;;17.30;96.73;100858.03;5073422;28;20173;-62
2022/06/26 02:45:55;;;;;;;21.55;12.38;;;;;;;17.33;96.80;100861.16;5071919;28;20082;-63
2022/06/26 02:48:22;;;;;;;20.85;12.48;;;;;;;17.33;95.46;100858.47;5073313;28;20055;-62
2022/06/26 02:50:50;;;;;;;19.38;12.55;;;;;;;17.29;95.75;100859.06;5072758;28;20098;-64
2022/06/26 02:53:17;;;;;;;21.77;12.60;;;;;;;17.33;95.10;100853.09;5073032;28;20045;-63
2022/06/26 02:55:44;;;;;;;21.50;12.13;;;;;;;17.35;95.78;100851.03;5073219;28;20045;-63
2022/06/26 02:58:14;;;;;;;27.73;12.65;;;;;;;17.41;95.05;100858.31;5073205;28;20052;-62
2022/06/26 03:00:51;;;;;;;22.00;12.80;;;;;;;17.45;95.83;100854.22;5072570;28;20147;-62
2022/06/26 03:03:19;;;;;;;26.42;14.25;;;;;;;17.45;96.31;100856.09;5072559;28;20039;-63
2022/06/26 03:05:46;;;;;;;20.90;13.05;;;;;;;17.44;96.00;100871.34;5072994;28;20064;-63
2022/06/26 03:08:13;;;;;;;25.55;14.30;;;;;;;17.46;94.88;100868.44;5071834;28;20490;-62
2022/06/26 03:10:39;;;;;;;22.60;13.98;;;;;;;17.48;95.36;100871.75;5072965;28;20097;-62
2022/06/26 03:13:06;;;;;;;24.77;14.02;;;;;;;17.49;95.63;100886.84;5073226;28;20070;-62
2022/06/26 03:15:33;;;;;;;22.58;13.65;;;;;;;17.54;94.76;100892.44;5073228;28;20037;-62
2022/06/26 03:18:02;;;;;;;28.05;13.80;;;;;;;17.60;95.24;100899.69;5073090;28;20048;-64
2022/06/26 03:20:30;;;;;;;20.17;13.30;;;;;;;17.57;94.04;100909.97;5073114;28;20048;-62
2022/06/26 03:22:57;;;;;;;24.35;13.48;;;;;;;17.56;93.66;100903.81;5073201;28;20056;-62
2022/06/26 03:25:24;;;;;;;20.75;14.38;;;;;;;17.55;94.58;100909.34;5072998;28;20044;-63
2022/06/26 03:27:51;;;;;;;22.33;14.35;;;;;;;17.49;94.16;100928.94;5073004;28;20075;-62
2022/06/26 03:30:19;;;;;;;27.30;14.32;;;;;;;17.54;95.02;100930.00;5072169;28;20340;-61
2022/06/26 03:32:50;;;;;;;22.17;14.38;;;;;;;17.57;95.05;100926.94;5069435;28;20047;-62
2022/06/26 03:35:18;;;;;;;25.50;14.65;;;;;;;17.54;94.59;100919.25;5072572;28;20524;-62
2022/06/26 03:37:46;;;;;;;22.33;13.63;;;;;;;17.40;94.19;100923.69;5063279;28;20401;-62
2022/06/26 03:40:13;;;;;;;20.17;13.43;;;;;;;17.37;95.27;100924.09;5072795;28;20135;-63
2022/06/26 03:42:40;;;;;;;27.23;14.10;;;;;;;17.43;95.01;100917.94;5072000;28;20045;-63
2022/06/26 03:45:09;;;;;;;25.35;14.90;;;;;;;17.43;95.58;100919.81;5076344;28;20512;-63
2022/06/26 03:47:35;;;;;;;22.17;14.00;;;;;;;17.49;95.43;100916.34;5075826;28;20551;-62
2022/06/26 03:50:03;;;;;;;27.58;14.07;;;;;;;17.50;94.96;100914.47;5076490;28;20041;-63
2022/06/26 03:52:31;;;;;;;27.58;14.60;;;;;;;17.49;94.89;100919.00;5076338;28;20036;-62
2022/06/26 03:55:00;;;;;;;25.63;14.18;;;;;;;17.57;95.45;100915.34;5076178;28;20060;-63
2022/06/26 03:57:27;;;;;;;24.35;14.70;;;;;;;17.55;94.43;100915.53;5076091;28;20143;-62
2022/06/26 03:59:55;;;;;;;33.03;13.38;;;;;;;17.54;94.18;100921.13;5076244;28;20041;-61
2022/06/26 04:02:43;;;;;;;21.17;12.98;;;;;;;17.50;94.22;100926.06;5076433;28;20040;-62
2022/06/26 04:05:15;;;;;;;20.80;13.32;;;;;;;17.59;94.15;100942.81;5075643;28;20417;-62
2022/06/26 04:07:43;;;;;;;22.80;14.52;;;;;;;17.62;94.47;100948.59;5075735;28;20041;-62
2022/06/26 04:10:18;;;;;;;28.67;14.30;;;;;;;17.61;94.99;100943.47;5076036;28;20490;-62
2022/06/26 04:12:46;;;;;;;24.30;14.35;;;;;;;17.66;94.70;100949.03;5075865;28;20037;-62
2022/06/26 04:15:12;;;;;;;24.98;13.05;;;;;;;17.67;93.70;100955.25;5076188;28;20036;-62
2022/06/26 04:17:40;;;;;;;22.30;14.13;;;;;;;17.62;93.98;100955.84;5075874;28;20096;-62
2022/06/26 04:20:11;;;;;;;26.63;14.68;;;;;;;17.57;95.38;100945.72;5075133;28;20469;-62
2022/06/26 04:22:38;;;;;;;20.25;12.32;;;;;;;17.57;93.76;100942.16;5075967;28;20040;-62
2022/06/26 04:25:09;;;;;;;21.53;12.17;;;;;;;17.47;91.79;100931.78;5075872;28;20036;-62
2022/06/26 04:27:36;;;;;;;24.02;11.32;;;;;;;17.45;91.76;100934.66;5075229;28;20037;-62
2022/06/26 04:30:04;;;;;;;19.00;10.88;;;;;;;17.48;91.58;100929.94;5074243;28;20468;-62
2022/06/26 04:32:30;;;;;;;23.05;8.88;;;;;;;17.36;89.60;100938.50;5075793;28;20040;-62
2022/06/26 04:35:00;;;;;;;12.40;6.90;;;;;;;17.28;89.31;100944.00;5071339;28;20090;-62
2022/06/26 04:37:27;;;;;;;15.68;6.15;;;;;;;17.28;87.67;100954.72;5075489;28;20048;-61
2022/06/26 04:39:54;;;;;;;14.32;5.30;;;;;;;17.30;85.01;100952.72;5075547;28;20588;-61
2022/06/26 04:42:21;;;;;;;14.55;5.22;;;;;;;17.09;86.49;100958.91;5075405;28;20151;-61
2022/06/26 04:44:47;;;;;;;12.40;4.47;;;;;;;16.93;85.89;100959.97;5075548;28;20528;-62
2022/06/26 04:47:14;;;;;;;14.77;4.30;;;;;;;16.97;84.19;100961.28;5075306;28;20044;-62
2022/06/26 04:49:54;;;;;;;10.68;3.88;;;;;;;16.84;84.17;100969.97;5075342;28;20078;-62
2022/06/26 04:52:21;;;;;;;12.13;4.03;;;;;;;16.74;85.38;100965.94;5075083;28;20072;-61
2022/06/26 04:54:52;;;;;;;9.48;4.00;;;;;;;16.72;85.45;100963.44;5055177;28;20045;-62
2022/06/26 04:57:22;;;;;;;14.57;4.25;;;;;;;16.70;85.63;100973.53;5055407;28;20072;-62
2022/06/26 04:59:50;;;;;;;8.82;3.80;;;;;;;16.66;85.98;100978.44;5054717;28;20067;-62
2022/06/26 05:02:17;;;;;;;8.73;3.80;;;;;;;16.65;85.62;100968.72;5055191;28;20047;-62
2022/06/26 05:05:05;;;;;;;11.25;3.83;;;;;;;16.65;85.00;100971.41;5054259;28;20049;-62
2022/06/26 05:07:51;;;;;;;9.25;3.80;;;;;;;16.64;85.62;100966.22;5055362;28;20051;-61
2022/06/26 05:10:20;;;;;;;11.55;4.00;;;;;;;16.70;85.88;100982.38;5054859;28;20045;-62
2022/06/26 05:12:51;;;;;;;10.25;4.72;;;;;;;16.59;85.09;100987.38;5054876;28;20061;-62
2022/06/26 05:15:32;;;;;;;19.35;7.97;;;;;;;16.71;84.37;100991.22;5055015;28;20052;-62
2022/06/26 05:17:59;;;;;;;16.38;10.38;;;;;;;16.62;84.75;100990.50;5054915;28;20048;-63
2022/06/26 05:20:26;;;;;;;25.42;15.98;;;;;;;16.69;85.00;100980.69;5054244;28;20068;-62
2022/06/26 05:22:53;;;;;;;23.48;12.80;;;;;;;16.68;85.63;100979.06;5054919;28;20529;-62
2022/06/26 05:25:20;;;;;;;19.65;11.35;;;;;;;16.75;86.56;100989.00;5054870;28;20055;-62
2022/06/26 05:27:47;;;;;;;25.05;16.58;;;;;;;16.97;84.06;100993.44;5054930;28;20128;-62
2022/06/26 05:30:14;;;;;;;18.63;11.25;;;;;;;17.05;82.89;100995.16;5064091;28;20093;-62
2022/06/26 05:32:42;;;;;;;19.58;11.05;;;;;;;17.13;83.90;100996.88;5074771;28;20482;-62
2022/06/26 05:35:14;;;;;;;16.52;9.90;;;;;;;17.11;83.35;100991.69;5074624;28;20493;-62
2022/06/26 05:37:42;;;;;;;13.07;7.18;;;;;;;17.19;83.28;100996.09;5069251;28;20132;-63
2022/06/26 05:40:09;;;;;;;12.07;5.90;;;;;;;17.23;82.81;100998.22;5054993;28;20056;-63
2022/06/26 05:42:39;;;;;;;12.70;5.30;;;;;;;17.18;83.14;100997.94;5054885;28;20128;-64
2022/06/26 05:45:09;;;;;;;12.68;5.97;;;;;;;17.17;81.84;101008.88;5054993;28;20041;-63
2022/06/26 05:47:36;;;;;;;14.23;6.07;;;;;;;17.11;81.34;101015.81;5054412;28;20457;-63
2022/06/26 05:50:21;;;;;;;11.70;4.93;;;;;;;17.10;82.32;101026.72;5054579;28;20056;-64
2022/06/26 05:52:56;;;;;;;11.27;4.35;;;;;;;17.04;82.35;101029.13;5054642;28;20045;-63
2022/06/26 05:55:42;;;;;;;13.48;5.05;;;;;;;16.98;82.70;101035.25;5054188;28;20041;-62
2022/06/26 05:58:29;;;;;;;12.43;5.45;;;;;;;16.99;84.90;101026.22;5054171;28;20073;-62
2022/06/26 06:01:11;;;;;;;14.30;5.03;;;;;;;17.06;84.10;101020.91;5053839;28;20409;-62
2022/06/26 06:03:39;;;;;;;11.77;4.90;;;;;;;17.08;85.44;101014.38;5053468;28;20044;-62
2022/06/26 06:06:06;;;;;;;11.45;4.40;;;;;;;17.05;84.93;101024.63;5064364;28;20037;-62
2022/06/26 06:08:33;;;;;;;14.07;5.40;;;;;;;17.03;85.46;101034.72;5073546;28;20045;-62
2022/06/26 06:11:00;;;;;;;11.60;6.10;;;;;;;17.06;81.88;101037.84;5073467;28;20444;-62
2022/06/26 06:13:29;;;;;;;15.05;5.60;;;;;;;16.98;82.49;101037.94;5073886;28;20102;-63
2022/06/26 06:15:56;;;;;;;13.50;6.07;;;;;;;17.10;83.14;101037.44;5073793;28;20390;-62
2022/06/26 06:18:25;;;;;;;13.23;7.28;;;;;;;16.97;83.91;101044.34;5073870;28;20097;-62
2022/06/26 06:20:52;;;;;;;16.83;7.95;;;;;;;16.94;82.67;101041.22;5073561;28;20049;-62
2022/06/26 06:23:34;;;;;;;14.77;7.32;;;;;;;17.07;81.95;101052.06;5073332;28;20101;-62
2022/06/26 06:26:02;;;;;;;17.27;7.35;;;;;;;17.06;83.32;101053.94;5073510;28;20136;-62
2022/06/26 06:28:29;;;;;;;19.35;10.60;;;;;;;17.22;79.50;101065.41;5073487;28;20052;-62
2022/06/26 06:30:56;;;;;;;17.38;10.10;;;;;;;17.16;80.55;101076.91;5072806;28;20139;-62
2022/06/26 06:33:25;;;;;;;22.98;10.60;;;;;;;17.11;80.71;101082.81;5073661;28;20056;-61
2022/06/26 06:35:55;;;;;;;19.77;9.90;;;;;;;17.16;81.00;101093.00;5073699;28;20101;-62
2022/06/26 06:38:25;;;;;;;15.68;7.63;;;;;;;17.13;80.04;101082.63;5073370;28;20122;-61
2022/06/26 06:40:55;;;;;;;15.27;7.32;;;;;;;17.18;81.24;101091.78;5073137;28;20036;-61
2022/06/26 06:43:30;;;;;;;16.85;6.43;;;;;;;17.30;80.56;101092.13;5072250;28;20524;-62
2022/06/26 06:46:17;;;;;;;11.02;5.40;;;;;;;17.24;81.18;101095.53;5073103;28;20046;-62
2022/06/26 06:48:55;;;;;;;12.00;4.55;;;;;;;17.42;78.80;101100.47;5073604;28;20128;-62
2022/06/26 06:51:27;;;;;;;11.65;4.28;;;;;;;17.44;78.01;101111.84;5072883;28;20169;-62
2022/06/26 06:53:54;;;;;;;11.32;4.85;;;;;;;17.44;78.17;101112.69;5073441;28;20052;-61
2022/06/26 06:56:21;;;;;;;14.52;4.30;;;;;;;17.51;77.72;101125.34;5073331;28;20068;-62
2022/06/26 06:58:48;;;;;;;13.88;4.38;;;;;;;17.52;78.17;101126.97;5073172;28;20055;-62
2022/06/26 07:01:14;;;;;;;12.88;4.18;;;;;;;17.44;76.42;101122.56;5072731;28;20387;-63
2022/06/26 07:03:41;;;;;;;11.43;4.40;;;;;;;17.35;75.72;101121.84;5072531;28;20119;-61
2022/06/26 07:06:08;;;;;;;9.60;3.60;;;;;;;17.39;74.80;101122.31;5072972;28;20044;-62
2022/06/26 07:08:34;;;;;;;10.05;3.72;;;;;;;17.39;75.01;101123.16;5070335;28;20056;-62
2022/06/26 07:11:01;;;;;;;10.68;3.83;;;;;;;17.49;74.76;101112.13;5068233;28;20095;-62
2022/06/26 07:13:28;;;;;;;9.27;3.75;;;;;;;17.60;74.00;101108.91;5072786;28;20371;-62
2022/06/26 07:15:55;;;;;;;9.27;3.33;;;;;;;17.70;75.02;101111.31;5072828;28;20103;-62
2022/06/26 07:18:24;;;;;;;9.98;3.40;;;;;;;17.69;74.66;101111.50;5076216;28;20037;-62
2022/06/26 07:20:53;;;;;;;13.65;3.72;;;;;;;17.76;74.74;101115.88;5077080;28;20143;-62
2022/06/26 07:23:20;;;;;;;10.00;3.42;;;;;;;17.84;76.36;101122.97;5077253;28;20049;-62
2022/06/26 07:25:55;;;;;;;11.98;4.38;;;;;;;17.93;75.46;101116.47;5076054;28;20048;-62
2022/06/26 07:28:27;;;;;;;14.10;4.30;;;;;;;17.92;72.76;101120.19;5076965;28;20397;-62
2022/06/26 07:30:54;;;;;;;11.10;4.10;;;;;;;17.92;73.92;101113.97;5077138;28;20124;-62
2022/06/26 07:36:11;;;;;;;8.55;3.28;;;;;;;17.95;75.59;101114.41;5072759;28;20521;-62
2022/06/26 07:38:39;;;;;;;10.43;3.40;;;;;;;18.10;71.62;101110.81;5067039;28;20072;-62
2022/06/26 07:41:06;;;;;;;14.40;3.78;;;;;;;18.18;71.27;101118.75;5076580;28;20040;-62
2022/06/26 07:43:33;;;;;;;11.30;3.10;;;;;;;18.13;71.33;101138.09;5077019;28;20048;-62
2022/06/26 07:46:00;;;;;;;9.02;3.30;;;;;;;18.25;72.11;101138.44;5076710;28;20040;-62
2022/06/26 07:48:27;;;;;;;10.27;3.33;;;;;;;18.26;69.27;101145.44;5076185;28;20044;-62
2022/06/26 07:50:57;;;;;;;11.80;3.17;;;;;;;18.38;70.08;101146.56;5076632;28;20045;-62
2022/06/26 07:53:24;;;;;;;9.43;2.78;;;;;;;18.37;70.73;101157.50;5076250;28;20053;-62
2022/06/26 07:55:51;;;;;;;8.63;3.28;;;;;;;18.34;68.11;101156.03;5075999;28;20375;-63
2022/06/26 07:58:17;;;;;;;9.52;3.00;;;;;;;18.35;68.12;101156.88;5076285;28;20044;-63
2022/06/26 08:00:44;;;;;;;9.05;3.50;;;;;;;18.40;67.69;101155.25;5076029;28;20079;-62
2022/06/26 08:03:14;;;;;;;9.02;3.40;;;;;;;18.48;68.69;101156.13;5076375;28;20044;-62
2022/06/26 08:05:42;;;;;;;10.32;2.78;;;;;;;18.51;67.21;101163.81;5071065;28;20056;-62
2022/06/26 08:08:09;;;;;;;10.02;3.10;;;;;;;18.56;67.42;101169.44;5072390;28;20398;-62
2022/06/26 08:10:36;;;;;;;8.80;2.70;;;;;;;18.67;67.00;101174.25;5076009;28;20055;-62
2022/06/26 08:13:04;;;;;;;10.48;3.10;;;;;;;18.59;66.64;101171.69;5075905;28;20064;-62
2022/06/26 08:15:31;;;;;;;9.93;3.10;;;;;;;18.72;67.65;101177.19;5091759;28;20076;-63
2022/06/26 08:17:58;;;;;;;9.23;3.25;;;;;;;18.96;67.56;101175.06;5075863;28;20051;-63
2022/06/26 08:20:25;;;;;;;8.77;2.92;;;;;;;19.21;66.66;101166.47;5075611;28;20048;-63
2022/06/26 08:22:51;;;;;;;9.40;3.30;;;;;;;19.37;66.61;101168.81;5071832;28;20062;-62
2022/06/26 08:25:18;;;;;;;8.30;2.85;;;;;;;19.61;65.10;101167.47;5075976;28;20123;-63
2022/06/26 08:27:45;;;;;;;7.78;2.75;;;;;;;19.51;63.53;101170.53;5074470;28;20040;-62
2022/06/26 08:30:12;;;;;;;8.98;2.70;;;;;;;19.51;64.66;101169.69;5074650;28;20049;-62
2022/06/26 08:32:41;;;;;;;10.65;3.00;;;;;;;19.43;63.80;101176.09;5075521;28;20048;-62
2022/06/26 08:35:09;;;;;;;11.27;2.63;;;;;;;19.39;61.57;101174.81;5075496;28;20048;-63
2022/06/26 08:37:36;;;;;;;7.60;2.60;;;;;;;19.26;62.49;101170.22;5074400;28;20430;-62
2022/06/26 08:40:05;;;;;;;7.18;2.47;;;;;;;19.40;63.51;101167.59;5075892;28;20049;-63
2022/06/26 08:42:32;;;;;;;10.10;2.50;;;;;;;19.29;61.17;101164.44;5075578;28;20044;-62
2022/06/26 08:45:00;;;;;;;10.30;2.50;;;;;;;19.27;61.69;101163.00;5074323;28;20093;-63
2022/06/26 08:47:35;;;;;;;5.07;2.33;;;;;;;19.09;61.46;101171.63;5075202;28;20496;-63
2022/06/26 08:50:02;;;;;;;7.60;2.47;;;;;;;19.20;63.01;101171.03;5074931;28;20044;-62
2022/06/26 08:52:29;;;;;;;8.98;2.60;;;;;;;19.28;62.94;101176.25;5074002;28;20049;-63
2022/06/26 08:54:56;;;;;;;5.90;2.30;;;;;;;19.42;61.32;101176.28;5074049;28;20040;-63
2022/06/26 08:57:25;;;;;;;9.43;2.42;;;;;;;19.45;60.49;101174.03;5060289;28;20072;-62
2022/06/26 08:59:52;;;;;;;6.93;2.30;;;;;;;19.66;60.64;101182.97;5054747;28;20044;-62
2022/06/26 09:02:19;;;;;;;8.10;2.40;;;;;;;19.67;60.30;101181.97;5075531;28;20047;-62
2022/06/26 09:04:45;;;;;;;8.02;2.58;;;;;;;19.85;59.40;101178.72;5072318;28;20044;-62
2022/06/26 09:07:12;;;;;;;6.45;2.53;;;;;;;20.06;59.29;101178.50;5073781;28;20045;-62
2022/06/26 09:09:39;;;;;;;8.50;2.53;;;;;;;20.17;59.19;101173.56;5074337;28;20048;-63
2022/06/26 09:12:07;;;;;;;7.65;2.47;;;;;;;20.21;59.17;101170.25;5057527;28;20048;-63
2022/06/26 09:14:34;;;;;;;6.10;2.25;;;;;;;20.45;58.32;101170.66;5073611;28;20548;-63
2022/06/26 09:17:02;;;;;;;8.50;2.33;;;;;;;20.56;57.31;101167.31;5075108;28;20047;-63
2022/06/26 09:19:36;;;;;;;9.80;2.30;;;;;;;20.77;57.96;101168.13;5075021;28;20045;-63
2022/06/26 09:22:07;;;;;;;6.70;2.50;;;;;;;20.65;55.25;101174.16;5074846;28;20043;-63
2022/06/26 09:24:36;;;;;;;11.35;2.80;;;;;;;20.60;54.85;101186.59;5074903;28;20127;-63
2022/06/26 09:27:10;;;;;;;9.07;2.50;;;;;;;20.87;54.92;101182.00;5074828;28;20398;-63
2022/06/26 09:29:39;;;;;;;9.23;2.65;;;;;;;20.86;55.00;101183.03;5074851;28;20075;-63
2022/06/26 09:32:08;;;;;;;8.70;2.50;;;;;;;20.92;54.60;101182.19;5073981;28;20044;-63
2022/06/26 09:34:34;;;;;;;8.55;2.40;;;;;;;20.92;56.55;101182.19;5074232;28;20044;-63
2022/06/26 09:37:05;;;;;;;9.35;2.40;;;;;;;21.08;56.86;101181.72;5074698;28;20051;-63
2022/06/26 09:39:33;;;;;;;5.38;2.30;;;;;;;21.19;53.17;101185.63;5068394;28;20045;-63
2022/06/26 09:42:19;;;;;;;9.52;2.50;;;;;;;21.49;53.62;101182.41;5053054;28;20051;-63
2022/06/26 09:44:50;;;;;;;8.63;2.70;;;;;;;21.58;53.36;101189.19;5054488;28;20072;-63
2022/06/26 09:47:21;;;;;;;8.68;2.50;;;;;;;21.55;53.04;101186.09;5054128;28;20043;-63
2022/06/26 09:49:51;;;;;;;7.40;2.53;;;;;;;21.51;53.49;101185.72;5054345;28;20045;-64
2022/06/26 09:52:21;;;;;;;12.23;2.40;;;;;;;21.54;53.23;101192.53;5054257;28;20052;-63
2022/06/26 09:54:48;;;;;;;9.73;2.25;;;;;;;21.41;53.86;101190.69;5054313;28;20110;-63
2022/06/26 09:57:15;;;;;;;12.55;2.20;;;;;;;21.60;52.99;101191.69;5067299;28;20040;-64
2022/06/26 09:59:43;;;;;;;7.55;2.60;;;;;;;21.71;53.56;101185.59;5074111;28;20374;-64
2022/06/26 10:07:52;;;;;;;7.40;2.30;;;;;;;22.05;50.27;101187.03;5042572;28;20050;-63
2022/06/26 10:10:23;;;;;;;7.78;1.92;;;;;;;21.86;49.62;101188.00;5071605;28;20456;-62
2022/06/26 10:12:54;;;;;;;8.52;2.30;;;;;;;21.90;49.80;101188.38;5053611;28;20048;-62
2022/06/26 10:15:27;;;;;;;8.60;2.22;;;;;;;21.57;50.48;101189.41;5054094;28;20055;-62
2022/06/26 10:18:20;;;;;;;7.40;2.08;;;;;;;21.51;50.18;101191.09;5054297;28;20037;-63
2022/06/26 10:20:47;;;;;;;8.10;1.90;;;;;;;21.45;49.40;101194.69;5049930;28;20048;-64
2022/06/26 10:23:31;;;;;;;7.38;2.22;;;;;;;21.49;49.99;101203.19;5053928;28;20056;-64
2022/06/26 10:25:58;;;;;;;7.30;2.20;;;;;;;21.37;51.29;101203.78;5053478;28;20548;-62
2022/06/26 10:28:24;;;;;;;6.13;2.10;;;;;;;21.49;51.00;101200.47;5085669;28;20044;-62
2022/06/26 10:30:51;;;;;;;7.88;2.17;;;;;;;21.47;50.83;101206.09;5056727;28;20044;-63
2022/06/26 10:33:18;;;;;;;7.97;1.92;;;;;;;21.39;48.79;101207.13;5079519;28;20090;-63
2022/06/26 10:35:51;;;;;;;10.35;1.92;;;;;;;21.55;50.54;101203.13;5065062;28;20053;-63
2022/06/26 10:38:26;;;;;;;5.93;1.98;;;;;;;21.52;47.75;101205.41;5087940;28;20098;-63
2022/06/26 10:44:12;;;;;;;6.68;2.28;;;;;;;21.70;49.64;101200.13;5081936;28;20047;-64
2022/06/26 10:46:49;;;;;;;7.43;2.10;;;;;;;21.73;49.13;101204.28;5069423;28;20375;-63
2022/06/26 10:49:16;;;;;;;7.60;2.17;;;;;;;21.88;49.59;101210.19;5068220;28;20044;-63
2022/06/26 10:51:44;;;;;;;6.50;2.30;;;;;;;21.89;48.46;101211.03;5054723;28;20044;-63
2022/06/26 10:54:21;;;;;;;7.63;2.15;;;;;;;21.80;49.21;101203.19;5069354;28;20549;-63
2022/06/26 10:57:04;;;;;;;6.22;2.03;;;;;;;21.83;48.38;101200.06;5087281;28;20060;-63
2022/06/26 10:59:31;;;;;;;5.63;1.92;;;;;;;21.75;49.98;101194.09;5075566;28;20041;-62
2022/06/26 11:01:58;;;;;;;11.52;4.80;;;;;;;21.85;48.52;101203.38;5056116;28;20444;-63
2022/06/26 11:04:26;;;;;;;6.85;2.53;;;;;;;21.81;49.58;101202.16;5062297;28;20482;-63
2022/06/26 11:06:53;;;;;;;10.32;4.90;;;;;;;21.84;48.31;101199.00;5069367;28;20818;-65
2022/06/26 11:09:20;;;;;;;8.82;2.63;;;;;;;21.58;46.78;101200.00;5078955;28;20401;-63
2022/06/26 11:11:51;;;;;;;8.75;2.33;;;;;;;21.39;47.33;101208.97;5042200;28;20044;-63
2022/06/26 11:14:17;;;;;;;9.20;2.42;;;;;;;21.27;48.86;101203.44;5066035;28;20037;-62
2022/06/26 11:16:45;;;;;;;7.60;2.38;;;;;;;21.35;49.18;101210.47;5069423;28;20094;-62
2022/06/26 11:19:29;;;;;;;8.60;2.70;;;;;;;21.42;47.70;101214.78;5082029;28;20083;-62
2022/06/26 11:22:26;;;;;;;8.07;2.22;;;;;;;21.27;48.12;101214.22;5061483;28;20413;-63
2022/06/26 11:24:55;;;;;;;6.72;2.30;;;;;;;21.23;49.25;101215.72;5076602;28;20044;-61
2022/06/26 11:27:25;;;;;;;;;;;;;;;21.22;48.55;101222.94;5047199;28;20043;-63
2022/06/26 11:29:52;;;;;;;6.75;2.40;;;;;;;21.17;49.39;101221.94;5117905;28;20362;-62
2022/06/26 11:32:26;;;;;;;10.38;2.88;;;;;;;21.20;49.76;101219.66;5078382;28;20055;-64
2022/06/26 11:34:54;;;;;;;7.70;2.22;;;;;;;21.03;50.45;101219.28;5077426;28;20118;-62
2022/06/26 11:37:37;;;;;;;6.85;2.10;;;;;;;21.05;50.39;101213.69;5064375;28;20055;-63
2022/06/26 11:40:21;;;;;;;6.18;2.22;;;;;;;21.03;50.98;101227.38;5075814;28;20040;-63
2022/06/26 11:42:56;;;;;;;8.45;2.22;;;;;;;20.86;51.43;101223.47;5067899;28;20086;-64